Terminal Aerodrome Forecast
Issued by NWS Charleston, WV

Current Version | Previous Version | Text Only | Print | Product List | Glossary Off
Versions: 1 2 3 4 5 6 7 8 9 10 11 12 13 14 15 16 17 18 19 20 21 22 23 24 25

915
FTUS41 KRLX 271503 AAA
TAFBKW
TAF AMD
KBKW 271503Z 2715/2812 25009G16KT P6SM SCT028 SCT040 BKN050
     FM271900 25009G15KT P6SM VCTS BKN040CB
     FM272100 25009G15KT P6SM SHRA VCTS BKN035CB
     FM272300 27007KT P6SM SHRA VCTS BKN035CB
     FM280400 27005KT P6SM BKN035=

USA.gov is the U.S. government's official web portal to all federal, state and local government web resources and services.